Terminal Aerodrome Forecast
Issued by NWS Shreveport, LA

Home | Current Version | Previous Version | Text Only | Print | Product List | Glossary On
Versions: 1 2 3 4 5 6 7 8 9 10 11 12 13 14 15
000
FTUS44 KSHV 170500
TAFLFK
TAF
KLFK 170535Z 1706/1806 00000KT 1SM BR OVC001
      TEMPO 1706/1708 4SM BR SCT002
     FM171200 VRB03KT P6SM BKN025 BKN250
      TEMPO 1712/1714 2SM BR OVC015
     FM171600 17005KT P6SM SCT035 BKN250
     FM171800 17005KT P6SM VCTS SCT040CB BKN120 BKN250
     FM180400 17003KT P6SM BKN120 BKN250=

USA.gov is the U.S. government's official web portal to all federal, state and local government web resources and services.